Rangeley, ME (04970)

10:40 AM EST on December 04, 2016 (GMT -0500)
Toothaker Pond | | Change Station

Elev 820 ft 44.87 °N, 70.40 °W | Updated 6 seconds ago

Overcast
Overcast
30.3 °F
Feels Like 30 °F
N
2.0
Wind Variable Wind from WNW

Today
High -- | Low -- °F
--% Chance of Precip.
Yesterday
High -- | Low -- °F
Precip. -- in
Pressure 30.19 in
Visibility 10.0 miles
Clouds Overcast 2300 ft
Windchill 30 °F
Dew Point 20 °F
Humidity 65%
Rainfall 0.00 in
Snow Depth Not available.
7:04 AM 4:01 PM
Waxing Crescent, 23% visible
METAR KBML 041452Z AUTO VRB06KT 10SM OVC023 M02/M07 A3013 RMK AO2 SLP221 T10171072 51013
Pressure 30.19 in
Visibility 10.0 miles
Clouds Overcast 2300 ft
Windchill 30 °F
Dew Point 20 °F
Humidity 65%
Rainfall 0.00 in
Snow Depth Not available.
7:04 AM 4:01 PM
Waxing Crescent, 23% visible
METAR KBML 041452Z AUTO VRB06KT 10SM OVC023 M02/M07 A3013 RMK AO2 SLP221 T10171072 51013

10-Day Weather Forecast

Almanac

Astronomy

Dec. 04, 2016 Rise Set
Actual Time
Civil Twilight
Nautical Twilight
Astronomical Twilight
Moon
Length of Visible Light
Length of Day
Tomorrow will be .
, % of the Moon is Illuminated

Today's Extremes

State Highs State Lows

Community

WunderPhotos

Upload Photos

1,955,608 photos uploaded!

WunderBlog® & News

Nearby

Air Quality

  Air Quality AQ Index Pollutant
Not available.

Snow Depth

Station Depth Elevation

Earthquake Activity

City Distance Mag. Time & Date
Minimum magnitude displayed is 2.5.

Coastal Water Temperatures

Place Temperature

Stations

Nearby Weather Stations

Station Location Temp. Windchill Dew Point Humidity Wind Precip. Elev Updated Type
                   

Watches & Warnings

There are currently no watches in effect.